Time;durP1;ratioP1;P1;durP2;ratioP2;P2;SDS_P1;SDS_P2;PMS_P1;PMS_P2;Temp;Humidity;BMP_temperature;BMP_pressure;BME280_temperature;BME280_humidity;BME280_pressure;Samples;Min_cycle;Max_cycle;Signal;HPM_P1;HPM_P2
2021/08/12 00:00:21;;;;;;;8.63;6.20;;;16.90;1.00;;;;;;5026727;28;20507;-80
2021/08/12 00:03:06;;;;;;;9.37;6.17;;;17.00;1.00;;;;;;5029663;28;20821;-80
2021/08/12 00:09:23;;;;;;;10.63;6.90;;;16.90;1.00;;;;;;5035144;28;20462;-80
2021/08/12 00:21:54;;;;;;;11.03;6.43;;;16.80;1.00;;;;;;5024838;28;20373;-81
2021/08/12 00:27:42;;;;;;;9.93;6.27;;;16.70;1.00;;;;;;5034791;28;20199;-80
2021/08/12 00:33:42;;;;;;;10.20;6.67;;;16.70;1.00;;;;;;5034963;28;20406;-81
2021/08/12 00:36:29;;;;;;;10.67;6.50;;;16.70;1.00;;;;;;5034687;28;20398;-81
2021/08/12 00:42:17;;;;;;;13.67;7.03;;;16.70;1.00;;;;;;5015127;28;20501;-81
2021/08/12 00:45:00;;;;;;;9.60;6.33;;;16.70;1.00;;;;;;5030635;28;20551;-81
2021/08/12 00:54:10;;;;;;;11.20;7.07;;;16.60;1.00;;;;;;5031141;28;20403;-80
2021/08/12 01:03:47;;;;;;;14.27;7.00;;;16.50;1.00;;;;;;5034470;28;20548;-81
2021/08/12 01:13:53;;;;;;;9.07;6.80;;;16.50;1.00;;;;;;5034367;28;20392;-81
2021/08/12 01:20:06;;;;;;;10.43;6.57;;;16.50;1.00;;;;;;5033646;28;20743;-80
2021/08/12 01:25:55;;;;;;;15.47;6.53;;;16.50;1.00;;;;;;5033714;28;20476;-80
2021/08/12 01:32:01;;;;;;;9.20;6.70;;;16.50;1.00;;;;;;5013983;28;20338;-80
2021/08/12 01:37:57;;;;;;;14.60;6.37;;;16.60;1.00;;;;;;5028255;28;20414;-81
2021/08/12 01:41:05;;;;;;;8.87;6.03;;;16.60;1.00;;;;;;5027631;28;20407;-81
2021/08/12 01:44:00;;;;;;;12.93;6.80;;;16.60;1.00;;;;;;5014548;28;20470;-81
2021/08/12 01:47:11;;;;;;;13.47;6.73;;;16.60;1.00;;;;;;5016680;28;20478;-81
2021/08/12 01:49:39;;;;;;;13.10;6.50;;;16.70;1.00;;;;;;5033079;28;20393;-80
2021/08/12 01:55:33;;;;;;;9.77;6.40;;;16.60;1.00;;;;;;5033419;28;20404;-80
2021/08/12 01:58:50;;;;;;;14.00;6.60;;;16.70;1.00;;;;;;5033223;28;20427;-80
2021/08/12 02:01:18;;;;;;;12.17;6.70;;;16.60;1.00;;;;;;5014049;28;20813;-80
2021/08/12 02:13:49;;;;;;;9.73;6.83;;;16.50;1.00;;;;;;5033448;28;20742;-79
2021/08/12 02:16:18;;;;;;;10.00;6.10;;;16.40;1.00;;;;;;5033331;28;20403;-80
2021/08/12 02:18:48;;;;;;;10.60;6.73;;;16.40;1.00;;;;;;5033501;28;20631;-80
2021/08/12 02:21:20;;;;;;;13.67;6.37;;;16.40;1.00;;;;;;5033110;28;20415;-80
2021/08/12 02:24:09;;;;;;;8.90;6.60;;;16.40;1.00;;;;;;5033226;28;20440;-80
2021/08/12 02:27:00;;;;;;;11.03;5.30;;;16.40;1.00;;;;;;5032028;28;20410;-80
2021/08/12 02:29:29;;;;;;;8.90;6.13;;;16.40;1.00;;;;;;5017978;28;20430;-80
2021/08/12 02:32:09;;;;;;;10.60;6.53;;;16.40;1.00;;;;;;5032964;28;20520;-80
2021/08/12 02:34:36;;;;;;;11.53;6.53;;;16.40;1.00;;;;;;5024282;28;20439;-80
2021/08/12 02:41:17;;;;;;;12.43;6.70;;;16.40;1.00;;;;;;5032793;28;20434;-80
2021/08/12 02:43:49;;;;;;;12.60;6.13;;;16.40;1.00;;;;;;5013568;28;20447;-80
2021/08/12 02:46:35;;;;;;;11.10;6.27;;;16.90;1.00;;;;;;5013442;28;20771;-80
2021/08/12 02:52:42;;;;;;;9.33;5.90;;;16.40;1.00;;;;;;5024034;28;20405;-80
2021/08/12 02:58:51;;;;;;;8.50;5.60;;;16.40;1.00;;;;;;5032840;28;20461;-79
2021/08/12 03:01:19;;;;;;;10.77;5.70;;;16.30;1.00;;;;;;5032392;28;20398;-80
2021/08/12 03:07:08;;;;;;;9.77;6.00;;;16.30;1.00;;;;;;5032812;28;20771;-79
2021/08/12 03:13:06;;;;;;;9.30;6.20;;;16.10;1.00;;;;;;5036310;28;20462;-79
2021/08/12 03:22:16;;;;;;;9.47;5.63;;;16.00;1.00;;;;;;5025404;28;20434;-81
2021/08/12 03:28:04;;;;;;;9.13;6.07;;;15.90;1.00;;;;;;5035804;28;20903;-80
2021/08/12 03:33:51;;;;;;;10.17;6.03;;;15.90;1.00;;;;;;5031403;28;20175;-80
2021/08/12 03:36:18;;;;;;;7.13;5.90;;;15.90;1.00;;;;;;5034926;28;20521;-80
2021/08/12 03:39:30;;;;;;;8.07;5.80;;;15.90;1.00;;;;;;5034329;28;20180;-79
2021/08/12 03:45:18;;;;;;;8.60;5.57;;;15.80;1.00;;;;;;5016120;28;20534;-80
2021/08/12 03:54:28;;;;;;;9.73;6.10;;;15.80;1.00;;;;;;5016036;28;20358;-80
2021/08/12 04:00:16;;;;;;;8.47;5.63;;;15.60;1.00;;;;;;5017422;28;20192;-88
2021/08/12 04:06:03;;;;;;;9.50;6.20;;;15.60;1.00;;;;;;5035760;28;20430;-77
2021/08/12 04:15:13;;;;;;;8.93;6.10;;;15.50;1.00;;;;;;5036316;28;20371;-90
2021/08/12 04:21:29;;;;;;;9.40;6.27;;;15.50;1.00;;;;;;5034441;28;20263;-85
2021/08/12 04:31:07;;;;;;;10.80;6.80;;;15.40;1.00;;;;;;5035409;28;20405;-86
2021/08/12 04:36:55;;;;;;;10.80;6.30;;;15.50;1.00;;;;;;5035368;28;20460;-85
2021/08/12 04:49:27;;;;;;;11.13;6.47;;;;;;;;;;5034676;28;20421;-79
2021/08/12 04:55:17;;;;;;;10.77;7.03;;;15.80;1.00;;;;;;5034717;28;20368;-79
2021/08/12 04:57:48;;;;;;;10.17;7.00;;;15.80;1.00;;;;;;5034087;28;20855;-79
2021/08/12 05:03:54;;;;;;;9.20;5.63;;;16.10;1.00;;;;;;5021776;28;20927;-79
2021/08/12 05:10:11;;;;;;;10.03;5.90;;;16.20;1.00;;;;;;5018012;28;20459;-77
2021/08/12 05:19:21;;;;;;;10.57;5.70;;;16.50;1.00;;;;;;5025520;28;20407;-76
2021/08/12 05:22:00;;;;;;;13.60;6.03;;;16.70;1.00;;;;;;5034037;28;20418;-77
2021/08/12 05:24:42;;;;;;;13.40;5.80;;;16.70;1.00;;;;;;5033131;28;20665;-77
2021/08/12 05:27:53;;;;;;;11.00;5.93;;;16.90;1.00;;;;;;5029879;28;20423;-76
2021/08/12 05:30:47;;;;;;;10.13;6.00;;;17.10;1.00;;;;;;5028849;28;20503;-77
2021/08/12 05:33:47;;;;;;;8.57;6.30;;;17.30;1.00;;;;;;5033609;28;20416;-79
2021/08/12 05:39:35;;;;;;;11.47;5.93;;;17.80;1.00;;;;;;5033824;28;20892;-80
2021/08/12 05:42:47;;;;;;;15.90;6.03;;;17.80;1.00;;;;;;5033765;28;20406;-80
2021/08/12 05:45:13;;;;;;;8.90;4.80;;;18.00;1.00;;;;;;5018596;28;20194;-80
2021/08/12 05:47:38;;;;;;;8.03;5.20;;;18.00;1.00;;;;;;5028158;28;20433;-80
2021/08/12 05:50:05;;;;;;;6.43;4.60;;;18.20;1.00;;;;;;5032796;28;20178;-80
2021/08/12 05:52:32;;;;;;;7.40;5.60;;;18.50;1.00;;;;;;5023597;28;20274;-80
2021/08/12 05:54:57;;;;;;;7.50;5.40;;;18.50;1.00;;;;;;5031249;28;20501;-80
2021/08/12 05:57:23;;;;;;;8.23;5.30;;;18.60;1.00;;;;;;5032469;28;20890;-80
2021/08/12 05:59:49;;;;;;;18.57;5.20;;;18.70;1.00;;;;;;5015470;28;20633;-80
2021/08/12 06:02:15;;;;;;;9.13;5.50;;;18.70;1.00;;;;;;5027721;28;20209;-80
2021/08/12 06:04:41;;;;;;;8.40;5.20;;;18.90;1.00;;;;;;5032813;28;20676;-83
2021/08/12 06:07:06;;;;;;;18.77;5.27;;;19.00;1.00;;;;;;5031648;28;20481;-82
2021/08/12 06:09:32;;;;;;;8.80;4.87;;;19.10;1.00;;;;;;5030779;28;20325;-82
2021/08/12 06:11:58;;;;;;;5.53;4.67;;;19.10;1.00;;;;;;5027275;28;20647;-82
2021/08/12 06:14:23;;;;;;;9.00;5.00;;;19.30;1.00;;;;;;5031440;28;20258;-82
2021/08/12 06:16:49;;;;;;;5.43;4.77;;;19.30;1.00;;;;;;5032803;28;20176;-82
2021/08/12 06:19:15;;;;;;;7.50;4.70;;;;;;;;;;5023216;28;20184;-82
2021/08/12 06:21:41;;;;;;;6.37;4.73;;;;;;;;;;5018404;28;20241;-83
2021/08/12 06:24:06;;;;;;;7.57;4.70;;;19.50;1.00;;;;;;5024058;28;20529;-83
2021/08/12 06:26:32;;;;;;;7.00;4.70;;;19.50;1.00;;;;;;5030420;28;20847;-83
2021/08/12 06:28:58;;;;;;;6.93;5.27;;;19.60;1.00;;;;;;5030374;28;20179;-83
2021/08/12 06:31:23;;;;;;;8.93;4.77;;;19.70;1.00;;;;;;5032032;28;20200;-83
2021/08/12 06:33:54;;;;;;;11.57;5.20;;;19.70;1.00;;;;;;5030305;28;20223;-82
2021/08/12 06:36:19;;;;;;;8.17;4.60;;;19.80;1.00;;;;;;5032805;28;20631;-80
2021/08/12 06:38:48;;;;;;;7.70;4.83;;;20.00;1.00;;;;;;5027395;28;20420;-80
2021/08/12 06:41:13;;;;;;;8.10;5.07;;;20.00;1.00;;;;;;5032491;28;20169;-79
2021/08/12 06:43:39;;;;;;;6.50;4.40;;;20.10;1.00;;;;;;5031034;28;20933;-80
2021/08/12 06:46:05;;;;;;;5.67;4.70;;;20.20;1.00;;;;;;5035950;28;20158;-80
2021/08/12 06:48:31;;;;;;;8.17;5.17;;;;;;;;;;5033716;28;20165;-80
2021/08/12 06:50:57;;;;;;;15.70;5.03;;;;;;;;;;5036353;28;20158;-81
2021/08/12 06:53:23;;;;;;;7.40;4.50;;;;;;;;;;5035949;28;20418;-80
2021/08/12 06:55:49;;;;;;;9.67;4.73;;;;;;;;;;5036173;28;20388;-80
2021/08/12 06:58:14;;;;;;;6.80;4.70;;;20.40;1.00;;;;;;5033981;28;20366;-80
2021/08/12 07:00:40;;;;;;;9.27;4.90;;;20.40;1.00;;;;;;5029207;28;20442;-80
2021/08/12 07:03:05;;;;;;;9.43;5.00;;;20.40;1.00;;;;;;5030694;28;20174;-79
2021/08/12 07:05:31;;;;;;;10.20;5.20;;;;;;;;;;5036235;28;20193;-81
2021/08/12 07:07:57;;;;;;;9.13;4.93;;;;;;;;;;5034824;28;20198;-81
2021/08/12 07:10:23;;;;;;;6.23;4.43;;;;;;;;;;5033393;28;20419;-81
2021/08/12 07:12:49;;;;;;;6.73;4.70;;;;;;;;;;5035329;28;20466;-81
2021/08/12 07:15:15;;;;;;;7.67;4.70;;;20.70;1.00;;;;;;5035212;28;20817;-83
2021/08/12 07:17:41;;;;;;;12.23;5.53;;;20.70;1.00;;;;;;5027940;28;20432;-80
2021/08/12 07:20:07;;;;;;;7.13;4.20;;;20.70;1.00;;;;;;5021922;28;20650;-83
2021/08/12 07:22:33;;;;;;;7.63;4.87;;;20.90;1.00;;;;;;5013777;28;20189;-80
2021/08/12 07:24:59;;;;;;;8.70;4.70;;;20.90;1.00;;;;;;5032996;28;20455;-80
2021/08/12 07:27:25;;;;;;;10.07;5.07;;;20.90;1.00;;;;;;5027511;28;20189;-82
2021/08/12 07:29:51;;;;;;;9.87;5.27;;;21.10;1.00;;;;;;5032797;28;20426;-80
2021/08/12 07:32:17;;;;;;;6.93;5.07;;;21.10;1.00;;;;;;5015608;28;20199;-80
2021/08/12 07:34:43;;;;;;;6.13;4.43;;;;;;;;;;5022063;28;20186;-79
2021/08/12 07:37:08;;;;;;;5.13;4.23;;;21.30;1.00;;;;;;5027129;28;20175;-78
2021/08/12 07:39:34;;;;;;;7.97;4.63;;;21.20;1.00;;;;;;5017686;28;20421;-78
2021/08/12 07:42:00;;;;;;;13.70;5.10;;;21.20;1.00;;;;;;5034317;28;20623;-78
2021/08/12 07:44:26;;;;;;;9.90;5.80;;;;;;;;;;5024983;28;20199;-78
2021/08/12 07:46:51;;;;;;;6.80;4.67;;;21.20;1.00;;;;;;5015367;28;20163;-77
2021/08/12 07:49:17;;;;;;;9.00;4.87;;;21.30;1.00;;;;;;5015320;28;20900;-75
2021/08/12 07:51:42;;;;;;;9.20;4.60;;;21.60;1.00;;;;;;5026117;28;20181;-74
2021/08/12 07:54:08;;;;;;;5.23;4.20;;;21.60;1.00;;;;;;5028015;28;20698;-75
2021/08/12 07:56:34;;;;;;;6.93;4.80;;;21.70;1.00;;;;;;5014855;28;20169;-74
2021/08/12 07:58:59;;;;;;;9.93;4.90;;;21.80;1.00;;;;;;5014911;28;20180;-74
2021/08/12 08:01:25;;;;;;;8.50;5.03;;;21.90;1.00;;;;;;5030881;28;20242;-71
2021/08/12 08:03:52;;;;;;;10.13;4.90;;;22.00;1.00;;;;;;5033160;28;20196;-71
2021/08/12 08:06:18;;;;;;;7.00;4.63;;;22.10;1.00;;;;;;5034665;28;20566;-72
2021/08/12 08:08:43;;;;;;;7.13;5.03;;;22.20;1.00;;;;;;5034015;28;20431;-71
2021/08/12 08:11:09;;;;;;;8.00;4.43;;;22.40;1.00;;;;;;5030750;28;20195;-71
2021/08/12 08:13:35;;;;;;;9.37;4.53;;;22.40;1.00;;;;;;5022793;28;20183;-71
2021/08/12 08:16:01;;;;;;;7.83;4.47;;;22.50;1.00;;;;;;5033721;28;20532;-71
2021/08/12 08:18:27;;;;;;;8.27;4.70;;;22.70;1.00;;;;;;5025097;28;20174;-71
2021/08/12 08:20:53;;;;;;;7.57;4.23;;;22.80;1.00;;;;;;5017891;28;20872;-71
2021/08/12 08:23:19;;;;;;;6.90;4.00;;;23.10;1.00;;;;;;5034651;28;20405;-71
2021/08/12 08:25:45;;;;;;;5.43;4.20;;;23.20;1.00;;;;;;5017330;28;20959;-71
2021/08/12 08:28:22;;;;;;;9.17;4.87;;;23.20;1.00;;;;;;5029469;28;20450;-81
2021/08/12 08:30:48;;;;;;;13.07;4.20;;;23.30;1.00;;;;;;5034264;28;20471;-80
2021/08/12 08:33:14;;;;;;;5.70;4.40;;;23.40;1.00;;;;;;5033865;28;20423;-80
2021/08/12 08:35:40;;;;;;;16.83;4.30;;;23.50;1.00;;;;;;5029754;28;20441;-80
2021/08/12 08:38:05;;;;;;;5.03;4.20;;;23.50;1.00;;;;;;5014491;28;20590;-80
2021/08/12 08:40:32;;;;;;;7.87;4.00;;;23.60;1.00;;;;;;5014387;28;20166;-81
2021/08/12 08:42:58;;;;;;;5.30;4.40;;;23.70;1.00;;;;;;5013065;28;20179;-80
2021/08/12 08:45:27;;;;;;;12.60;4.40;;;23.80;1.00;;;;;;5013104;28;20461;-80
2021/08/12 08:47:54;;;;;;;12.93;4.67;;;24.10;1.00;;;;;;5034431;28;20433;-80
2021/08/12 08:50:31;;;;;;;7.20;4.27;;;24.10;1.00;;;;;;5025683;28;20490;-80
2021/08/12 08:52:58;;;;;;;6.47;4.60;;;24.30;1.00;;;;;;5026489;28;20771;-80
2021/08/12 08:55:24;;;;;;;8.03;4.30;;;24.70;1.00;;;;;;5021066;28;20415;-80
2021/08/12 08:57:55;;;;;;;7.20;3.83;;;24.70;1.00;;;;;;5012744;28;20409;-80
2021/08/12 09:00:24;;;;;;;10.17;4.43;;;24.90;1.00;;;;;;5027616;28;20925;-80
2021/08/12 09:02:50;;;;;;;8.37;4.43;;;24.90;1.00;;;;;;5032406;28;20931;-81
2021/08/12 09:05:17;;;;;;;8.53;4.07;;;25.10;1.00;;;;;;5032307;28;20469;-80
2021/08/12 09:07:44;;;;;;;7.67;4.10;;;25.30;1.00;;;;;;5033025;28;20476;-80
2021/08/12 09:10:12;;;;;;;12.23;4.97;;;25.30;1.00;;;;;;5024533;28;20441;-80
2021/08/12 09:12:37;;;;;;;14.40;4.53;;;25.50;1.00;;;;;;5032864;28;20439;-80
2021/08/12 09:15:08;;;;;;;6.53;4.07;;;25.60;1.00;;;;;;5032919;28;20927;-81
2021/08/12 09:17:34;;;;;;;7.20;4.60;;;25.80;1.00;;;;;;5013622;28;20167;-81
2021/08/12 09:20:10;;;;;;;6.73;4.20;;;26.10;1.00;;;;;;5023242;28;20898;-81
2021/08/12 09:22:57;;;;;;;7.43;4.43;;;26.40;1.00;;;;;;5033450;28;20403;-79
2021/08/12 09:25:47;;;;;;;5.87;3.80;;;26.70;1.00;;;;;;5031492;28;20448;-79
2021/08/12 09:28:17;;;;;;;10.93;4.77;;;27.10;1.00;;;;;;5032123;28;20779;-79
2021/08/12 09:30:59;;;;;;;5.40;4.27;;;27.10;1.00;;;;;;5031416;28;20429;-79
2021/08/12 09:33:38;;;;;;;6.70;4.50;;;27.50;1.00;;;;;;5032203;28;20424;-79
2021/08/12 09:36:44;;;;;;;6.30;4.83;;;27.60;1.00;;;;;;5026731;28;20432;-79
2021/08/12 09:39:22;;;;;;;5.97;4.67;;;27.80;1.00;;;;;;5016932;28;20513;-79
2021/08/12 09:41:50;;;;;;;8.00;4.87;;;28.00;1.00;;;;;;5032432;28;20879;-79
2021/08/12 09:44:44;;;;;;;6.53;4.60;;;28.10;1.00;;;;;;5029200;28;20557;-79
2021/08/12 09:47:15;;;;;;;8.40;4.10;;;28.20;1.00;;;;;;5013168;28;20405;-79
2021/08/12 09:49:52;;;;;;;9.23;4.57;;;28.30;1.00;;;;;;5022827;28;20449;-79
2021/08/12 09:52:36;;;;;;;5.40;4.03;;;28.40;1.00;;;;;;5033227;28;20728;-80
2021/08/12 09:55:23;;;;;;;7.90;4.23;;;28.40;1.00;;;;;;5026381;28;20505;-80
2021/08/12 09:57:54;;;;;;;7.27;4.00;;;28.30;1.00;;;;;;5031716;28;20446;-80
2021/08/12 10:00:25;;;;;;;6.70;4.27;;;28.30;1.00;;;;;;5031127;28;20444;-80
2021/08/12 10:02:54;;;;;;;12.50;4.27;;;28.40;1.00;;;;;;5016660;28;20442;-80
2021/08/12 10:05:20;;;;;;;5.53;4.30;;;28.50;1.00;;;;;;5032472;28;20448;-80
2021/08/12 10:07:46;;;;;;;7.63;4.70;;;28.60;1.00;;;;;;5032958;28;20756;-80
2021/08/12 10:10:19;;;;;;;6.57;4.40;;;28.70;1.00;;;;;;5015383;28;20168;-81
2021/08/12 10:12:48;;;;;;;7.17;4.40;;;28.80;1.00;;;;;;5024645;28;20413;-80
2021/08/12 10:15:37;;;;;;;4.80;4.17;;;28.90;1.00;;;;;;5033034;28;20402;-80
2021/08/12 10:18:04;;;;;;;5.53;4.30;;;29.20;1.00;;;;;;5032255;28;20461;-80
2021/08/12 10:20:34;;;;;;;8.77;4.50;;;29.40;1.00;;;;;;5017600;28;20443;-80
2021/08/12 10:23:06;;;;;;;8.00;4.33;;;29.50;1.00;;;;;;5030230;28;20422;-80
2021/08/12 10:25:34;;;;;;;6.97;4.37;;;29.70;1.00;;;;;;5035542;28;20518;-80
2021/08/12 10:28:05;;;;;;;8.07;4.03;;;29.80;1.00;;;;;;5016668;28;20422;-79
2021/08/12 10:30:32;;;;;;;5.63;3.70;;;30.00;1.00;;;;;;5016721;28;20930;-79
2021/08/12 10:33:01;;;;;;;8.53;4.10;;;30.10;1.00;;;;;;5032133;28;20416;-79
2021/08/12 10:35:30;;;;;;;14.67;4.17;;;30.30;1.00;;;;;;5036490;28;20392;-79
2021/08/12 10:37:57;;;;;;;11.43;4.33;;;30.50;1.00;;;;;;5018353;28;20477;-80
2021/08/12 10:40:30;;;;;;;8.73;4.10;;;30.60;1.00;;;;;;5016752;28;20911;-80
2021/08/12 10:42:57;;;;;;;6.00;4.47;;;;;;;;;;5029656;28;20872;-81
2021/08/12 10:45:24;;;;;;;8.17;4.57;;;30.60;1.00;;;;;;5035603;28;20463;-80
2021/08/12 10:47:54;;;;;;;6.77;4.07;;;30.50;1.00;;;;;;5031203;28;20430;-81
2021/08/12 10:50:23;;;;;;;7.20;4.43;;;30.60;1.00;;;;;;5035066;28;20409;-80
2021/08/12 10:53:10;;;;;;;7.00;3.90;;;30.60;1.00;;;;;;5036552;28;20969;-80
2021/08/12 10:56:00;;;;;;;6.33;4.33;;;30.60;1.00;;;;;;5033772;28;20427;-79
2021/08/12 10:58:37;;;;;;;7.97;3.87;;;30.60;1.00;;;;;;5014778;28;20428;-80
2021/08/12 11:01:06;;;;;;;9.10;3.90;;;30.60;1.00;;;;;;5026260;28;20794;-79
2021/08/12 11:03:32;;;;;;;4.43;4.07;;;30.70;1.00;;;;;;5030633;28;20821;-79
2021/08/12 11:06:06;;;;;;;7.30;3.57;;;30.80;1.00;;;;;;5027973;28;20452;-79
2021/08/12 11:08:51;;;;;;;5.63;4.37;;;30.70;1.00;;;;;;5016283;28;20189;-80
2021/08/12 11:11:23;;;;;;;5.03;3.60;;;30.80;1.00;;;;;;5026602;28;20407;-80
2021/08/12 11:13:50;;;;;;;5.53;4.40;;;30.80;1.00;;;;;;5034211;28;20412;-80
2021/08/12 11:16:17;;;;;;;5.53;4.10;;;30.60;1.00;;;;;;5035754;28;20395;-80
2021/08/12 11:18:48;;;;;;;9.67;4.10;;;30.60;1.00;;;;;;5035604;28;20415;-80
2021/08/12 11:21:32;;;;;;;8.30;4.17;;;30.60;1.00;;;;;;5033998;28;20430;-80
2021/08/12 11:24:01;;;;;;;5.70;4.03;;;30.60;1.00;;;;;;5031773;28;20455;-80
2021/08/12 11:26:45;;;;;;;6.70;4.30;;;30.50;1.00;;;;;;5019625;28;20954;-81
2021/08/12 11:29:22;;;;;;;5.00;3.53;;;30.60;1.00;;;;;;5015514;28;20392;-80
2021/08/12 11:31:48;;;;;;;9.17;4.23;;;30.60;1.00;;;;;;5034761;28;20465;-80
2021/08/12 11:34:48;;;;;;;4.90;3.90;;;30.70;1.00;;;;;;5024344;28;20443;-81
2021/08/12 11:37:28;;;;;;;9.23;4.97;;;30.70;1.00;;;;;;5035366;28;20571;-79
2021/08/12 11:40:02;;;;;;;4.37;3.80;;;30.70;1.00;;;;;;5025127;28;20908;-80
2021/08/12 11:42:36;;;;;;;4.60;3.80;;;30.70;1.00;;;;;;5033880;28;20496;-80
2021/08/12 11:45:08;;;;;;;4.73;3.67;;;30.80;1.00;;;;;;5025299;28;20451;-81
2021/08/12 11:47:35;;;;;;;5.43;4.23;;;31.00;1.00;;;;;;5032825;28;20422;-81
2021/08/12 11:50:02;;;;;;;6.47;3.80;;;31.10;1.00;;;;;;5017853;28;20420;-81
2021/08/12 11:52:37;;;;;;;12.83;4.60;;;31.20;1.00;;;;;;5015535;28;20423;-79
2021/08/12 11:55:10;;;;;;;6.77;4.10;;;31.20;1.00;;;;;;5015225;28;20412;-79
2021/08/12 11:58:05;;;;;;;7.27;3.97;;;31.30;1.00;;;;;;5034422;28;20424;-79
2021/08/12 12:00:33;;;;;;;5.53;4.40;;;31.20;1.00;;;;;;5025685;28;20450;-79
2021/08/12 12:03:04;;;;;;;8.60;4.70;;;31.20;1.00;;;;;;5017134;28;20851;-79
2021/08/12 12:05:31;;;;;;;6.03;4.57;;;31.10;1.00;;;;;;5034490;28;20439;-79
2021/08/12 12:07:57;;;;;;;4.93;4.23;;;;;;;;;;5033819;28;20435;-80
2021/08/12 12:10:31;;;;;;;7.20;4.50;;;31.20;1.00;;;;;;5033968;28;20410;-80
2021/08/12 12:13:11;;;;;;;13.10;4.00;;;31.10;1.00;;;;;;5033190;28;20432;-80
2021/08/12 12:15:49;;;;;;;8.50;4.93;;;31.30;1.00;;;;;;5034617;28;20434;-80
2021/08/12 12:18:38;;;;;;;9.67;4.80;;;31.50;1.00;;;;;;5033148;28;20426;-80
2021/08/12 12:21:16;;;;;;;5.13;4.13;;;31.50;1.00;;;;;;5033112;28;20989;-81
2021/08/12 12:23:48;;;;;;;22.67;4.23;;;31.70;1.00;;;;;;5035019;28;20399;-79
2021/08/12 12:26:25;;;;;;;10.17;4.20;;;31.70;1.00;;;;;;5034486;28;20409;-79
2021/08/12 12:28:51;;;;;;;5.40;4.60;;;31.70;1.00;;;;;;5032976;28;20509;-79
2021/08/12 12:31:19;;;;;;;13.30;4.00;;;31.90;1.00;;;;;;5034315;28;20391;-79
2021/08/12 12:33:56;;;;;;;4.57;3.90;;;32.00;1.00;;;;;;5017349;28;20432;-79
2021/08/12 12:36:22;;;;;;;5.17;4.07;;;31.90;1.00;;;;;;5026659;28;20843;-79
2021/08/12 12:38:50;;;;;;;5.27;3.80;;;32.10;1.00;;;;;;5033720;28;20434;-78
2021/08/12 12:41:17;;;;;;;6.70;4.10;;;;;;;;;;5014464;28;20192;-78
2021/08/12 12:43:42;;;;;;;5.13;4.37;;;32.00;1.00;;;;;;5013652;28;20783;-78
2021/08/12 12:46:08;;;;;;;6.70;4.33;;;;;;;;;;5014203;28;20435;-79
2021/08/12 12:48:38;;;;;;;5.63;4.00;;;31.90;1.00;;;;;;5014329;28;20208;-79
2021/08/12 12:51:06;;;;;;;7.00;4.00;;;31.80;1.00;;;;;;5031146;28;20463;-79
2021/08/12 12:53:42;;;;;;;4.83;4.10;;;31.60;1.00;;;;;;5034056;28;20787;-78
2021/08/12 12:56:31;;;;;;;5.43;3.63;;;31.60;1.00;;;;;;5032656;28;20794;-78
2021/08/12 12:58:57;;;;;;;4.90;3.87;;;;;;;;;;5033763;28;20395;-78
2021/08/12 13:01:25;;;;;;;4.30;3.77;;;31.50;1.00;;;;;;5016698;28;20482;-78
2021/08/12 13:03:58;;;;;;;6.87;4.23;;;31.40;1.00;;;;;;5023383;28;20400;-78
2021/08/12 13:06:35;;;;;;;10.47;4.23;;;31.40;1.00;;;;;;5033530;28;20853;-78
2021/08/12 13:09:08;;;;;;;4.60;4.20;;;31.50;1.00;;;;;;5033814;28;20438;-79
2021/08/12 13:11:35;;;;;;;5.03;4.30;;;31.60;1.00;;;;;;5033083;28;20418;-79
2021/08/12 13:14:36;;;;;;;9.73;4.03;;;31.70;1.00;;;;;;5033301;28;20447;-79
2021/08/12 13:17:02;;;;;;;7.40;3.53;;;31.90;1.00;;;;;;5011432;28;20408;-79
2021/08/12 13:19:28;;;;;;;5.17;4.13;;;32.10;1.00;;;;;;5011544;28;20766;-79
2021/08/12 13:21:58;;;;;;;6.70;4.70;;;32.30;1.00;;;;;;5010735;28;20487;-79
2021/08/12 13:24:37;;;;;;;4.50;3.80;;;32.30;1.00;;;;;;5006012;28;20467;-80
2021/08/12 13:27:04;;;;;;;5.00;3.90;;;32.40;1.00;;;;;;4992415;28;20503;-82
2021/08/12 13:29:34;;;;;;;6.97;3.63;;;32.50;1.00;;;;;;5003915;28;20433;-81
2021/08/12 13:32:11;;;;;;;4.20;3.80;;;32.60;1.00;;;;;;4999264;28;20472;-81
2021/08/12 13:34:38;;;;;;;9.90;4.30;;;32.70;1.00;;;;;;4992752;28;20437;-82
2021/08/12 13:37:05;;;;;;;4.57;3.53;;;32.70;1.00;;;;;;4998871;28;20466;-81
2021/08/12 13:39:31;;;;;;;10.70;3.90;;;32.70;1.00;;;;;;5011558;28;20409;-79
2021/08/12 13:42:00;;;;;;;4.40;3.90;;;32.70;1.00;;;;;;5005610;28;20487;-79
2021/08/12 13:44:28;;;;;;;4.37;3.50;;;32.70;1.00;;;;;;4991388;28;20464;-79
2021/08/12 13:46:56;;;;;;;4.47;4.07;;;32.70;1.00;;;;;;4991140;28;20437;-79
2021/08/12 13:49:22;;;;;;;5.60;3.90;;;32.70;1.00;;;;;;4999435;28;20428;-79
2021/08/12 13:51:50;;;;;;;7.67;3.97;;;32.70;1.00;;;;;;5010656;28;20428;-79
2021/08/12 13:54:17;;;;;;;9.50;4.20;;;32.80;1.00;;;;;;5027373;28;20419;-79
2021/08/12 13:56:43;;;;;;;4.37;3.97;;;;;;;;;;5028003;28;20432;-79
2021/08/12 13:59:10;;;;;;;23.53;4.67;;;32.70;1.00;;;;;;5027440;28;20434;-79
2021/08/12 14:01:36;;;;;;;6.63;3.73;;;32.80;1.00;;;;;;5016294;28;20424;-79
2021/08/12 14:04:02;;;;;;;6.53;4.40;;;32.90;1.00;;;;;;5016252;28;20944;-79
2021/08/12 14:06:27;;;;;;;6.37;4.70;;;32.90;1.00;;;;;;5024974;28;20429;-79
2021/08/12 14:08:53;;;;;;;8.13;4.53;;;32.80;1.00;;;;;;5032980;28;20187;-79
2021/08/12 14:11:19;;;;;;;8.50;4.40;;;;;;;;;;5022147;28;20421;-78
2021/08/12 14:13:46;;;;;;;4.83;4.10;;;;;;;;;;5032638;28;20160;-80
2021/08/12 14:16:12;;;;;;;8.73;4.13;;;;;;;;;;5026802;28;20426;-79
2021/08/12 14:18:42;;;;;;;5.50;3.80;;;33.20;1.00;;;;;;5013054;28;20403;-79
2021/08/12 14:21:09;;;;;;;6.53;4.13;;;33.40;1.00;;;;;;5025148;28;20769;-79
2021/08/12 14:23:35;;;;;;;4.87;4.40;;;33.40;1.00;;;;;;5014369;28;20486;-79
2021/08/12 14:26:01;;;;;;;5.80;4.30;;;33.40;1.00;;;;;;5016863;28;20471;-81
2021/08/12 14:28:27;;;;;;;5.53;4.57;;;33.40;1.00;;;;;;5022162;28;20423;-81
2021/08/12 14:31:42;;;;;;;6.27;4.53;;;33.40;1.00;;;;;;5023087;28;20180;-80
2021/08/12 14:37:29;;;;;;;5.00;4.07;;;32.80;1.00;;;;;;5032937;28;20453;-83
2021/08/12 14:46:40;;;;;;;5.90;3.90;;;32.70;1.00;;;;;;5013543;28;20408;-80
2021/08/12 14:52:27;;;;;;;5.70;4.20;;;32.80;1.00;;;;;;5032127;28;20453;-79
2021/08/12 14:55:18;;;;;;;8.70;4.47;;;33.00;1.00;;;;;;5033329;28;20391;-79
2021/08/12 14:57:48;;;;;;;4.77;4.37;;;33.10;1.00;;;;;;5032180;28;20188;-76
2021/08/12 15:00:14;;;;;;;6.83;5.03;;;33.10;1.00;;;;;;5031568;28;20435;-77
2021/08/12 15:02:40;;;;;;;7.93;5.50;;;32.80;1.00;;;;;;5025139;28;20827;-76
2021/08/12 15:05:06;;;;;;;11.07;4.50;;;32.80;1.00;;;;;;5029310;28;20208;-76
2021/08/12 15:07:32;;;;;;;7.00;4.73;;;32.90;1.00;;;;;;5023140;28;20633;-75
2021/08/12 15:09:58;;;;;;;7.30;4.20;;;33.00;1.00;;;;;;5035994;28;20491;-72
2021/08/12 15:12:24;;;;;;;5.03;4.50;;;32.90;1.00;;;;;;5035732;28;20156;-73
2021/08/12 15:14:50;;;;;;;7.37;5.30;;;33.10;1.00;;;;;;5023428;28;20462;-73
2021/08/12 15:17:16;;;;;;;8.23;4.10;;;33.30;1.00;;;;;;5020277;28;20180;-71
2021/08/12 15:19:43;;;;;;;5.50;4.37;;;33.60;1.00;;;;;;5034203;28;20169;-71
2021/08/12 15:22:09;;;;;;;6.20;4.00;;;34.30;1.00;;;;;;5035743;28;20399;-71
2021/08/12 15:24:34;;;;;;;6.00;4.43;;;34.80;1.00;;;;;;5029883;28;20461;-75
2021/08/12 15:27:02;;;;;;;14.57;4.57;;;35.70;1.00;;;;;;5035576;28;20157;-87
2021/08/12 15:29:27;;;;;;;6.60;4.20;;;37.40;1.00;;;;;;5027494;28;20188;-87
2021/08/12 15:31:53;;;;;;;4.23;3.83;;;38.10;1.00;;;;;;5023234;28;20427;-88
2021/08/12 15:34:19;;;;;;;5.00;4.33;;;;;;;;;;5032231;28;20199;-87
2021/08/12 15:36:45;;;;;;;4.17;3.73;;;;;;;;;;5030861;28;20261;-87
2021/08/12 15:42:33;;;;;;;4.97;4.03;;;41.50;1.00;;;;;;5020025;28;21118;-80
2021/08/12 15:45:18;;;;;;;6.10;3.80;;;42.20;1.00;;;;;;5016433;28;20452;-81
2021/08/12 15:47:54;;;;;;;4.90;3.30;;;43.80;1.00;;;;;;5025358;28;20777;-80
2021/08/12 15:57:29;;;;;;;4.70;3.43;;;43.90;1.00;;;;;;5021001;28;20444;-81
2021/08/12 16:00:00;;;;;;;14.83;3.77;;;44.20;1.00;;;;;;5035629;28;20427;-81
2021/08/12 16:09:10;;;;;;;3.80;3.50;;;45.30;1.00;;;;;;5031525;28;20443;-81
2021/08/12 16:12:17;;;;;;;3.33;3.13;;;45.00;1.00;;;;;;5016086;28;20495;-81
2021/08/12 16:18:47;;;;;;;4.10;3.37;;;44.50;1.00;;;;;;5029290;28;20412;-81
2021/08/12 16:21:48;;;;;;;4.83;3.30;;;44.90;1.00;;;;;;5034854;28;20469;-80
2021/08/12 16:24:48;;;;;;;3.50;2.93;;;46.00;1.00;;;;;;5028729;28;20478;-80
2021/08/12 16:27:14;;;;;;;3.47;3.17;;;46.30;1.00;;;;;;5028199;28;20895;-80
2021/08/12 16:29:42;;;;;;;3.53;3.00;;;46.20;1.00;;;;;;5034848;28;20418;-80
2021/08/12 16:32:08;;;;;;;3.10;2.90;;;46.40;1.00;;;;;;5033909;28;20668;-79
2021/08/12 16:35:06;;;;;;;3.80;3.40;;;46.50;1.00;;;;;;5034743;28;20415;-78
2021/08/12 16:37:36;;;;;;;4.57;2.83;;;46.60;1.00;;;;;;5035117;28;20911;-79
2021/08/12 16:40:07;;;;;;;3.60;3.30;;;47.10;1.00;;;;;;5035211;28;20424;-79
2021/08/12 16:42:36;;;;;;;2.60;2.30;;;47.20;1.00;;;;;;5035072;28;20462;-82
2021/08/12 16:45:03;;;;;;;3.67;3.37;;;47.20;1.00;;;;;;5033754;28;20466;-79
2021/08/12 16:47:29;;;;;;;3.23;2.93;;;47.30;1.00;;;;;;5035011;28;20397;-79
2021/08/12 16:50:30;;;;;;;8.23;2.80;;;46.80;1.00;;;;;;5034715;28;20419;-79
2021/08/12 16:53:00;;;;;;;3.00;2.83;;;46.10;1.00;;;;;;5034839;28;20280;-79